Time;durP1;ratioP1;P1;durP2;ratioP2;P2;SDS_P1;SDS_P2;PMS_P1;PMS_P2;Temp;Humidity;BMP_temperature;BMP_pressure;BME280_temperature;BME280_humidity;BME280_pressure;Samples;Min_cycle;Max_cycle;Signal;HPM_P1;HPM_P2
2022/05/03 00:00:37;;;;;;;5.50;3.03;;;;;;;15.94;51.27;99642.13;4470404;32;33948;-80
2022/05/03 00:03:27;;;;;;;5.32;2.80;;;;;;;16.02;50.99;99644.53;4456660;32;33231;-80
2022/05/03 00:06:03;;;;;;;5.78;3.15;;;;;;;15.79;51.57;99648.19;4470235;32;34504;-80
2022/05/03 00:08:44;;;;;;;5.80;3.10;;;;;;;15.81;51.53;99650.72;4443480;32;35951;-80
2022/05/03 00:11:33;;;;;;;7.60;3.15;;;;;;;15.71;51.82;99648.56;4456598;32;33732;-81
2022/05/03 00:14:06;;;;;;;6.22;3.40;;;;;;;15.80;51.85;99644.34;4456101;32;33906;-80
2022/05/03 00:16:35;;;;;;;5.65;2.95;;;;;;;15.87;51.63;99640.59;4470490;32;34502;-80
2022/05/03 00:19:07;;;;;;;7.22;3.20;;;;;;;15.91;51.51;99645.41;4455032;32;34417;-80
2022/05/03 00:21:36;;;;;;;5.60;3.40;;;;;;;15.91;51.79;99644.56;4455219;32;34013;-80
2022/05/03 00:24:05;;;;;;;6.40;3.22;;;;;;;15.88;51.99;99642.28;4456371;32;33352;-80
2022/05/03 00:26:33;;;;;;;7.57;3.33;;;;;;;15.90;51.78;99640.09;4470343;32;34236;-80
2022/05/03 00:29:00;;;;;;;7.37;3.37;;;;;;;15.87;51.72;99635.06;4442672;32;34024;-80
2022/05/03 00:31:31;;;;;;;5.43;3.10;;;;;;;15.83;51.96;99634.72;4456157;32;34517;-80
2022/05/03 00:34:02;;;;;;;6.97;3.37;;;;;;;15.71;52.48;99633.88;4454411;32;33199;-79
2022/05/03 00:36:31;;;;;;;6.55;2.65;;;;;;;15.67;52.65;99639.06;4454494;32;33728;-80
2022/05/03 00:38:58;;;;;;;7.20;3.25;;;;;;;15.69;52.59;99633.28;4455041;32;34332;-80
2022/05/03 00:41:35;;;;;;;5.55;3.28;;;;;;;15.79;52.22;99633.50;4442262;32;33677;-80
2022/05/03 00:44:55;;;;;;;8.02;3.33;;;;;;;15.85;51.93;99627.00;4470252;32;34072;-80
2022/05/03 00:46:58;;;;;;;5.70;2.97;;;;;;;15.71;52.56;99637.50;4468315;32;34001;-79
2022/05/03 00:49:31;;;;;;;5.37;3.10;;;;;;;15.77;52.36;99628.22;4454055;32;34265;-80
2022/05/03 00:52:23;;;;;;;4.85;2.78;;;;;;;15.73;52.62;99631.72;4454815;32;34628;-80
2022/05/03 00:55:13;;;;;;;7.30;3.37;;;;;;;15.75;52.84;99635.09;4468698;32;33364;-79
2022/05/03 00:57:59;;;;;;;7.22;2.95;;;;;;;15.53;53.40;99628.50;4442559;32;33674;-80
2022/05/03 01:00:27;;;;;;;5.68;3.03;;;;;;;15.51;53.42;99634.28;4453925;32;34707;-79
2022/05/03 01:03:07;;;;;;;6.25;3.22;;;;;;;15.65;52.89;99632.09;4441660;32;33977;-80
2022/05/03 01:05:43;;;;;;;5.35;3.05;;;;;;;15.65;52.93;99632.94;4455696;32;33142;-80
2022/05/03 01:08:18;;;;;;;6.10;3.07;;;;;;;15.42;53.73;99630.19;4442459;32;33788;-80
2022/05/03 01:11:15;;;;;;;6.90;3.17;;;;;;;15.56;53.45;99628.03;4455367;32;35193;-81
2022/05/03 01:13:51;;;;;;;7.75;3.35;;;;;;;15.60;53.25;99635.59;4442489;32;34477;-81
2022/05/03 01:16:40;;;;;;;5.70;3.05;;;;;;;15.56;53.20;99628.84;4455226;32;34240;-80
2022/05/03 01:19:07;;;;;;;6.03;3.12;;;;;;;15.64;52.88;99627.66;4455307;32;34552;-79
2022/05/03 01:22:03;;;;;;;6.05;2.87;;;;;;;15.64;52.82;99636.78;4455121;32;34584;-79
2022/05/03 01:24:37;;;;;;;4.85;2.95;;;;;;;15.39;53.51;99636.22;4442416;32;34743;-80
2022/05/03 01:27:43;;;;;;;5.03;2.75;;;;;;;15.52;53.08;99633.19;4455267;32;34202;-80
2022/05/03 01:30:11;;;;;;;5.72;3.00;;;;;;;15.63;52.82;99639.78;4441880;32;34983;-80
2022/05/03 01:32:43;;;;;;;5.20;2.97;;;;;;;15.62;52.95;99638.13;4442461;32;35235;-80
2022/05/03 01:35:13;;;;;;;6.75;3.40;;;;;;;15.65;53.06;99632.94;4441834;32;34217;-80
2022/05/03 01:38:02;;;;;;;5.22;3.15;;;;;;;15.46;53.51;99635.00;4441974;32;34482;-81
2022/05/03 01:40:43;;;;;;;5.90;2.90;;;;;;;15.18;54.37;99634.87;4469516;32;34462;-80
2022/05/03 01:43:32;;;;;;;7.00;3.08;;;;;;;15.35;54.05;99640.53;4469667;32;34652;-80
2022/05/03 01:46:11;;;;;;;6.80;3.00;;;;;;;15.27;54.10;99636.22;4455797;32;34930;-80
2022/05/03 01:52:21;;;;;;;5.03;3.22;;;;;;;15.27;53.74;99641.75;4469573;32;34516;-80
2022/05/03 01:55:09;;;;;;;6.60;3.30;;;;;;;15.13;54.02;99640.28;4469481;32;35028;-80
2022/05/03 01:58:04;;;;;;;5.12;2.87;;;;;;;15.24;53.51;99642.22;4469326;32;34659;-80
2022/05/03 02:00:35;;;;;;;5.57;3.05;;;;;;;14.94;54.65;99638.75;4469238;32;34109;-80
2022/05/03 02:03:07;;;;;;;6.97;3.10;;;;;;;15.07;54.25;99632.97;4455361;32;33865;-80
2022/05/03 02:06:07;;;;;;;5.57;3.37;;;;;;;15.04;54.58;99642.56;4469296;32;35322;-80
2022/05/03 02:09:02;;;;;;;4.82;2.80;;;;;;;15.23;53.96;99640.53;4467244;32;34146;-81
2022/05/03 02:11:57;;;;;;;5.15;3.08;;;;;;;15.12;54.02;99635.84;4450064;32;33031;-80
2022/05/03 02:14:46;;;;;;;6.30;3.12;;;;;;;15.01;54.29;99637.53;4470819;32;33746;-80
2022/05/03 02:17:26;;;;;;;5.82;3.05;;;;;;;15.14;53.88;99637.28;4445198;32;33697;-81
2022/05/03 02:20:42;;;;;;;6.50;2.90;;;;;;;15.11;53.92;99636.94;4457166;32;33961;-80
2022/05/03 02:23:33;;;;;;;5.18;2.80;;;;;;;15.09;54.18;99636.31;4452727;32;33767;-81
2022/05/03 02:26:12;;;;;;;8.30;3.10;;;;;;;15.05;54.15;99638.72;4444255;32;33723;-80
2022/05/03 02:28:45;;;;;;;5.50;3.20;;;;;;;14.98;54.25;99638.00;4471442;32;34462;-80
2022/05/03 02:31:15;;;;;;;6.37;2.72;;;;;;;14.97;54.34;99633.56;4444313;32;33801;-81
2022/05/03 02:33:52;;;;;;;5.50;3.10;;;;;;;15.00;54.15;99635.00;4443904;32;33133;-80
2022/05/03 02:36:23;;;;;;;6.55;3.17;;;;;;;14.90;54.57;99635.63;4457048;32;33382;-81
2022/05/03 02:39:04;;;;;;;5.03;2.83;;;;;;;14.94;54.47;99636.81;4456948;32;34359;-80
2022/05/03 02:41:44;;;;;;;5.78;2.70;;;;;;;15.03;54.08;99640.03;4457063;32;33937;-80
2022/05/03 02:44:12;;;;;;;6.28;2.95;;;;;;;14.93;54.36;99640.66;4456816;32;33825;-81
2022/05/03 02:47:09;;;;;;;5.80;2.78;;;;;;;15.00;54.09;99629.47;4456789;32;33686;-80
2022/05/03 02:50:04;;;;;;;5.30;3.12;;;;;;;14.83;54.67;99638.50;4442346;32;34562;-80
2022/05/03 02:52:49;;;;;;;6.62;3.20;;;;;;;14.96;54.17;99640.16;4470871;32;35022;-80
2022/05/03 02:55:20;;;;;;;7.30;2.97;;;;;;;14.83;54.58;99644.00;4456570;32;33809;-81
2022/05/03 02:58:04;;;;;;;6.03;3.40;;;;;;;14.86;54.37;99636.31;4471041;32;33533;-80
2022/05/03 03:04:28;;;;;;;6.80;3.10;;;;;;;14.77;54.55;99642.19;4455575;32;34338;-80
2022/05/03 03:06:56;;;;;;;7.95;3.28;;;;;;;14.73;54.48;99641.00;4456870;32;33464;-80
2022/05/03 03:09:52;;;;;;;5.25;3.28;;;;;;;14.73;54.44;99643.75;4443892;32;34307;-80
2022/05/03 03:12:57;;;;;;;5.75;3.30;;;;;;;14.64;54.48;99642.41;4443615;32;35439;-81
2022/05/03 03:15:29;;;;;;;6.20;3.25;;;;;;;14.49;55.03;99642.84;4456677;32;34533;-80
2022/05/03 03:17:58;;;;;;;6.25;3.10;;;;;;;14.43;55.17;99642.94;4456755;32;33925;-80
2022/05/03 03:20:27;;;;;;;5.62;3.12;;;;;;;14.38;55.18;99631.72;4444027;32;34428;-80
2022/05/03 03:23:00;;;;;;;6.45;3.45;;;;;;;14.33;55.35;99637.09;4456031;32;34339;-80
2022/05/03 03:25:27;;;;;;;6.00;3.40;;;;;;;14.29;55.45;99641.44;4456834;32;33621;-79
2022/05/03 03:27:58;;;;;;;6.85;3.70;;;;;;;14.37;55.20;99630.88;4443417;32;33179;-79
2022/05/03 03:30:26;;;;;;;6.20;3.30;;;;;;;14.37;55.08;99639.16;4456772;32;34426;-80
2022/05/03 03:32:57;;;;;;;6.68;3.35;;;;;;;14.15;55.76;99643.53;4444169;32;34484;-80
2022/05/03 03:35:28;;;;;;;6.20;3.33;;;;;;;14.16;55.76;99650.75;4443643;32;33295;-80
2022/05/03 03:37:58;;;;;;;5.68;3.37;;;;;;;14.15;55.72;99649.91;4456694;32;33217;-80
2022/05/03 03:40:25;;;;;;;6.22;3.35;;;;;;;14.18;55.66;99648.59;4454366;32;33569;-79
2022/05/03 03:42:53;;;;;;;6.20;3.08;;;;;;;14.20;55.48;99657.50;4456484;32;34311;-80
2022/05/03 03:45:21;;;;;;;6.70;3.47;;;;;;;14.18;55.45;99649.44;4441399;32;34050;-81
2022/05/03 03:47:49;;;;;;;7.70;3.53;;;;;;;14.16;55.58;99648.84;4441013;32;33706;-80
2022/05/03 03:50:16;;;;;;;6.00;3.50;;;;;;;14.23;55.39;99645.97;4443699;32;33804;-80
2022/05/03 03:52:46;;;;;;;5.70;3.25;;;;;;;14.06;55.90;99651.31;4456389;32;34786;-80
2022/05/03 03:55:14;;;;;;;5.57;3.20;;;;;;;14.12;55.69;99650.37;4456655;32;33607;-79
2022/05/03 03:57:42;;;;;;;5.22;3.00;;;;;;;14.24;55.38;99658.72;4456442;32;32860;-80
2022/05/03 04:00:14;;;;;;;6.25;3.60;;;;;;;14.13;55.69;99662.25;4470485;32;33962;-82
2022/05/03 04:02:44;;;;;;;8.43;3.40;;;;;;;14.12;55.62;99658.66;4456679;32;34328;-79
2022/05/03 04:05:22;;;;;;;5.95;3.55;;;;;;;14.30;58.77;99665.22;4456322;32;33941;-79
2022/05/03 04:07:51;;;;;;;6.40;3.53;;;;;;;14.36;56.43;99662.34;4456265;32;33995;-80
2022/05/03 04:10:37;;;;;;;5.05;3.10;;;;;;;14.26;56.14;99658.47;4443814;32;34487;-80
2022/05/03 04:13:05;;;;;;;6.70;3.55;;;;;;;14.21;56.27;99661.09;4470095;32;34142;-79
2022/05/03 04:15:33;;;;;;;8.98;4.78;;;;;;;14.32;55.79;99655.59;4456602;32;33815;-80
2022/05/03 04:18:06;;;;;;;7.50;4.75;;;;;;;14.20;56.05;99667.69;4456482;32;33791;-81
2022/05/03 04:20:34;;;;;;;7.78;4.20;;;;;;;14.37;55.58;99660.41;4443928;32;33644;-80
2022/05/03 04:23:02;;;;;;;7.22;3.83;;;;;;;14.24;56.09;99664.22;4470403;32;34253;-80
2022/05/03 04:25:29;;;;;;;7.10;3.95;;;;;;;14.13;56.79;99668.63;4430636;32;34128;-80
2022/05/03 04:27:57;;;;;;;6.43;3.90;;;;;;;14.06;56.98;99673.37;4456579;32;33376;-80
2022/05/03 04:30:27;;;;;;;8.73;4.53;;;;;;;14.08;56.91;99662.09;4430567;32;33311;-81
2022/05/03 04:32:55;;;;;;;13.20;6.22;;;;;;;14.19;56.72;99666.84;4456074;32;34959;-80
2022/05/03 04:35:25;;;;;;;9.75;5.05;;;;;;;14.27;56.71;99671.19;4430454;32;34011;-81
2022/05/03 04:37:53;;;;;;;7.90;4.15;;;;;;;14.27;56.88;99663.75;4456120;32;33824;-79
2022/05/03 04:40:21;;;;;;;8.52;4.70;;;;;;;14.18;57.29;99665.16;4430548;32;34471;-80
2022/05/03 04:42:52;;;;;;;8.85;4.40;;;;;;;14.40;56.53;99673.75;4456007;32;35238;-81
2022/05/03 04:45:19;;;;;;;9.52;5.62;;;;;;;14.49;56.10;99664.94;4455601;32;33200;-79
2022/05/03 04:47:47;;;;;;;16.98;8.85;;;;;;;14.97;55.87;99663.09;4443262;32;33536;-80
2022/05/03 04:50:15;;;;;;;13.68;8.18;;;;;;;14.67;56.09;99666.78;4456137;32;33633;-81
2022/05/03 04:52:43;;;;;;;11.05;6.65;;;;;;;14.62;56.35;99666.66;4455863;32;34306;-81
2022/05/03 04:55:11;;;;;;;12.02;5.40;;;;;;;14.82;55.87;99667.19;4456103;32;33978;-80
2022/05/03 04:57:39;;;;;;;9.50;5.20;;;;;;;14.81;56.15;99676.56;4455888;32;34050;-80
2022/05/03 05:00:07;;;;;;;8.52;4.62;;;;;;;15.18;54.38;99679.13;4470100;32;33827;-81
2022/05/03 05:02:36;;;;;;;7.03;4.15;;;;;;;15.25;53.48;99679.00;4456002;32;34286;-81
2022/05/03 05:05:05;;;;;;;10.50;3.92;;;;;;;15.26;53.35;99678.78;4442340;32;34556;-81
2022/05/03 05:07:32;;;;;;;10.35;4.20;;;;;;;15.26;53.14;99684.28;4456132;32;33264;-80
2022/05/03 05:12:46;;;;;;;16.67;9.30;;;;;;;15.19;54.64;99679.97;4457150;32;34371;-81
2022/05/03 05:15:14;;;;;;;12.55;6.40;;;;;;;15.45;54.58;99683.09;4442939;32;34463;-82
2022/05/03 05:17:42;;;;;;;10.43;6.20;;;;;;;15.36;55.57;99687.31;4440597;32;32401;-80
2022/05/03 05:20:10;;;;;;;10.07;6.03;;;;;;;15.72;57.21;99685.38;4426424;32;33802;-80
2022/05/03 05:22:37;;;;;;;8.63;4.78;;;;;;;15.90;56.78;99687.16;4439634;32;34372;-80
2022/05/03 05:25:05;;;;;;;8.68;4.03;;;;;;;16.04;56.26;99675.56;4435023;32;34689;-81
2022/05/03 05:27:32;;;;;;;8.18;4.37;;;;;;;16.29;55.72;99666.91;4465484;32;33337;-81
2022/05/03 05:30:00;;;;;;;9.57;5.18;;;;;;;16.45;54.16;99673.59;4441345;32;32997;-81
2022/05/03 05:32:27;;;;;;;11.07;4.80;;;;;;;16.55;53.65;99672.97;4465480;32;34386;-81
2022/05/03 05:34:56;;;;;;;10.55;5.30;;;;;;;16.65;53.63;99667.63;4434463;32;33675;-81
2022/05/03 05:37:23;;;;;;;7.35;4.32;;;;;;;16.86;52.54;99671.63;4442293;32;33445;-81
2022/05/03 05:39:51;;;;;;;11.63;4.95;;;;;;;17.00;53.27;99661.84;4455391;32;34473;-81
2022/05/03 05:42:19;;;;;;;8.18;4.68;;;;;;;17.28;53.16;99670.09;4452812;32;34335;-81
2022/05/03 05:44:47;;;;;;;10.60;5.78;;;;;;;17.44;53.75;99669.25;4452607;32;34692;-80
2022/05/03 05:47:14;;;;;;;8.27;5.00;;;;;;;17.53;52.98;99671.59;4440987;32;33126;-81
2022/05/03 05:49:42;;;;;;;10.75;5.18;;;;;;;17.72;53.15;99676.59;4451040;32;34362;-80
2022/05/03 05:54:56;;;;;;;;;;;;;;;18.23;51.99;99671.69;4471856;32;34046;-81
2022/05/03 05:57:23;;;;;;;10.27;4.32;;;;;;;18.38;51.56;99673.81;4444338;32;33822;-81
2022/05/03 05:59:50;;;;;;;9.32;4.35;;;;;;;18.59;50.71;99664.59;4443928;32;34964;-81
2022/05/03 06:02:19;;;;;;;11.40;4.85;;;;;;;18.69;50.06;99670.31;4441528;32;35520;-81
2022/05/03 06:04:46;;;;;;;7.78;4.18;;;;;;;18.68;49.43;99667.78;4454250;32;34760;-81
2022/05/03 06:07:20;;;;;;;7.87;4.35;;;;;;;18.85;48.59;99662.94;4448790;32;33294;-81
2022/05/03 06:09:48;;;;;;;7.55;3.62;;;;;;;19.13;48.74;99672.91;4457321;32;34334;-81
2022/05/03 06:12:16;;;;;;;9.18;4.65;;;;;;;19.32;49.18;99671.41;4443999;32;34038;-81
2022/05/03 06:14:44;;;;;;;8.45;4.32;;;;;;;19.33;48.92;99664.75;4443240;32;32565;-80
2022/05/03 06:17:12;;;;;;;8.25;4.60;;;;;;;19.40;48.39;99667.28;4434004;32;33437;-81
2022/05/03 06:19:39;;;;;;;8.30;4.50;;;;;;;19.47;48.61;99667.06;4452165;32;33435;-81
2022/05/03 06:22:08;;;;;;;9.77;4.90;;;;;;;19.44;47.23;99674.00;4456136;32;34719;-81
2022/05/03 06:24:36;;;;;;;8.98;4.75;;;;;;;19.63;46.23;99668.84;4456856;32;33952;-81
2022/05/03 06:27:04;;;;;;;8.52;4.65;;;;;;;19.69;44.93;99665.84;4430893;32;33679;-81
2022/05/03 06:29:35;;;;;;;8.27;4.78;;;;;;;19.48;44.50;99672.38;4441126;32;34271;-81
2022/05/03 06:32:03;;;;;;;8.10;4.82;;;;;;;19.52;43.96;99678.25;4437044;32;33074;-81
2022/05/03 06:34:31;;;;;;;11.63;4.75;;;;;;;19.69;44.70;99674.19;4430863;32;32526;-81
2022/05/03 06:36:59;;;;;;;8.20;5.05;;;;;;;19.68;43.90;99683.66;4455162;32;33569;-80
2022/05/03 06:39:26;;;;;;;12.85;4.80;;;;;;;19.94;44.38;99681.84;4456170;32;34112;-81
2022/05/03 06:41:54;;;;;;;10.30;5.62;;;;;;;19.85;43.48;99677.06;4470522;32;34092;-80
2022/05/03 06:44:22;;;;;;;9.45;5.25;;;;;;;19.84;44.31;99686.53;4443896;32;34608;-80
2022/05/03 06:46:50;;;;;;;12.70;7.07;;;;;;;19.85;43.66;99677.91;4456896;32;34075;-80
2022/05/03 06:49:20;;;;;;;9.65;5.50;;;;;;;20.02;44.24;99672.97;4447818;32;33649;-80
2022/05/03 06:51:47;;;;;;;8.82;5.12;;;;;;;19.97;44.94;99675.75;4445156;32;34342;-80
2022/05/03 06:54:15;;;;;;;11.98;5.87;;;;;;;20.18;43.25;99673.84;4432078;32;33773;-80
2022/05/03 06:56:43;;;;;;;7.68;4.35;;;;;;;20.37;43.58;99674.22;4438337;32;33771;-80
2022/05/03 06:59:10;;;;;;;12.82;5.35;;;;;;;20.45;44.77;99670.09;4437502;32;33878;-80
2022/05/03 07:01:38;;;;;;;8.05;4.72;;;;;;;20.57;44.71;99670.69;4434333;32;34265;-80
2022/05/03 07:04:11;;;;;;;8.85;4.50;;;;;;;20.64;44.57;99671.25;4440688;32;32563;-80
2022/05/03 07:06:39;;;;;;;6.32;3.65;;;;;;;20.80;43.76;99667.38;4428186;32;33455;-80
2022/05/03 07:09:07;;;;;;;6.12;3.55;;;;;;;20.84;40.22;99662.91;4440200;32;34475;-80
2022/05/03 07:11:34;;;;;;;8.55;3.50;;;;;;;20.82;41.58;99673.50;4436976;32;32405;-80
2022/05/03 07:14:03;;;;;;;7.50;3.80;;;;;;;20.86;41.73;99669.06;4441515;32;33985;-81
2022/05/03 07:16:30;;;;;;;9.68;4.07;;;;;;;21.02;39.87;99667.94;4438244;32;34584;-80
2022/05/03 07:24:30;;;;;;;8.30;3.42;;;;;;;21.01;41.40;99673.81;4447715;32;34021;-76
2022/05/03 07:27:02;;;;;;;8.68;3.40;;;;;;;21.13;40.46;99670.75;4444401;32;33704;-76
2022/05/03 07:29:29;;;;;;;13.70;8.35;;;;;;;21.23;40.94;99677.19;4443062;32;33595;-76
2022/05/03 07:31:57;;;;;;;7.12;3.10;;;;;;;21.20;38.55;99677.72;4444070;32;35020;-77
2022/05/03 07:34:24;;;;;;;10.18;5.62;;;;;;;21.23;37.62;99671.63;4440854;32;34042;-76
2022/05/03 07:36:52;;;;;;;6.22;3.60;;;;;;;21.31;37.35;99679.44;4443535;32;33188;-77
2022/05/03 07:39:19;;;;;;;7.10;3.58;;;;;;;21.51;37.97;99680.50;4470007;32;34544;-77
2022/05/03 07:41:47;;;;;;;11.35;4.80;;;;;;;21.52;37.98;99674.66;4443397;32;33862;-76
2022/05/03 07:44:15;;;;;;;7.57;3.97;;;;;;;21.53;37.19;99664.31;4443640;32;34013;-76
2022/05/03 07:46:42;;;;;;;7.20;3.37;;;;;;;21.54;36.54;99666.00;4443311;32;31845;-76
2022/05/03 07:49:11;;;;;;;8.65;3.22;;;;;;;21.55;36.24;99670.47;4452761;32;34462;-76
2022/05/03 07:51:42;;;;;;;5.87;3.37;;;;;;;21.79;36.58;99670.69;4447536;32;34110;-76
2022/05/03 07:54:09;;;;;;;6.65;3.30;;;;;;;21.58;35.84;99661.53;4424991;32;33114;-76
2022/05/03 07:56:38;;;;;;;7.82;4.10;;;;;;;21.88;35.89;99667.03;4431904;32;31734;-76
2022/05/03 07:59:08;;;;;;;8.32;3.80;;;;;;;21.93;36.10;99675.41;4433049;32;33824;-76
2022/05/03 08:01:39;;;;;;;7.93;3.30;;;;;;;21.89;35.52;99670.66;4431926;32;32967;-76
2022/05/03 08:25:50;;;;;;;9.85;3.37;;;;;;;22.77;34.17;99673.63;4461740;26;36419;-76
2022/05/03 08:28:18;;;;;;;5.53;2.90;;;;;;;22.72;34.89;99667.25;4426430;32;33731;-76
2022/05/03 08:30:45;;;;;;;5.50;2.90;;;;;;;22.92;33.40;99667.94;4440166;32;31725;-76
2022/05/03 08:33:12;;;;;;;7.82;2.83;;;;;;;23.12;33.76;99666.97;4440324;32;33700;-76
2022/05/03 08:35:40;;;;;;;6.47;2.70;;;;;;;23.15;34.26;99666.37;4439992;32;34605;-76
2022/05/03 08:43:41;;;;;;;;;;;;;;;23.30;32.48;99669.06;4435090;32;33190;-76
2022/05/03 08:46:11;;;;;;;6.50;3.60;;;;;;;23.28;32.78;99665.72;4447265;32;34599;-76
2022/05/03 08:48:41;;;;;;;11.45;6.12;;;;;;;23.38;33.25;99666.75;4445090;32;34049;-76
2022/05/03 08:51:17;;;;;;;8.15;4.15;;;;;;;23.59;33.12;99665.44;4446934;32;33127;-76
2022/05/03 08:53:44;;;;;;;6.15;2.97;;;;;;;23.60;32.85;99665.13;4458589;32;33756;-77
2022/05/03 08:56:17;;;;;;;6.87;3.30;;;;;;;23.82;33.56;99666.59;4447012;32;34280;-76
2022/05/03 08:58:48;;;;;;;7.12;3.10;;;;;;;24.01;33.19;99656.31;4443434;32;32991;-76
2022/05/03 09:01:15;;;;;;;5.60;3.33;;;;;;;24.02;32.26;99666.37;4427548;32;32402;-76
2022/05/03 09:03:45;;;;;;;7.78;2.83;;;;;;;24.13;32.40;99662.28;4427674;32;32147;-76
2022/05/03 09:06:15;;;;;;;6.35;2.70;;;;;;;24.25;33.43;99664.69;4427964;32;34297;-77
2022/05/03 09:08:49;;;;;;;6.50;2.33;;;;;;;24.37;31.73;99665.13;4427945;32;33971;-76
2022/05/03 09:11:19;;;;;;;5.28;2.55;;;;;;;24.58;31.48;99655.28;4427594;32;33349;-77
2022/05/03 09:13:46;;;;;;;6.40;3.15;;;;;;;24.73;30.92;99656.19;4427463;32;33174;-76
2022/05/03 09:16:16;;;;;;;7.53;3.20;;;;;;;24.81;31.10;99656.34;4427307;32;33223;-76
2022/05/03 09:18:49;;;;;;;19.33;13.15;;;;;;;24.84;30.53;99657.69;4440071;32;33597;-76
2022/05/03 09:24:37;;;;;;;6.37;3.47;;;;;;;25.40;30.51;99648.38;4441669;32;33652;-76
2022/05/03 09:27:30;;;;;;;5.93;3.25;;;;;;;25.54;30.23;99646.44;4425952;32;35336;-76
2022/05/03 09:30:21;;;;;;;9.80;3.40;;;;;;;25.58;29.70;99639.88;4437407;32;34046;-76
2022/05/03 09:33:04;;;;;;;8.65;3.42;;;;;;;25.85;28.92;99636.31;4435278;32;31961;-76
2022/05/03 09:35:52;;;;;;;8.30;3.45;;;;;;;26.03;28.76;99634.53;4452460;32;33433;-76
2022/05/03 09:38:40;;;;;;;7.10;2.72;;;;;;;25.93;26.84;99637.56;4438654;32;34008;-76
2022/05/03 09:41:30;;;;;;;5.05;2.78;;;;;;;26.51;28.02;99634.94;4453043;32;34711;-76
2022/05/03 09:44:21;;;;;;;4.97;2.62;;;;;;;26.74;27.72;99634.97;4440322;32;31787;-76
2022/05/03 09:47:18;;;;;;;8.73;3.25;;;;;;;26.94;27.38;99631.69;4441022;32;34058;-76
2022/05/03 09:50:07;;;;;;;6.60;3.12;;;;;;;26.74;26.56;99624.53;4452910;32;35098;-76
2022/05/03 09:52:49;;;;;;;4.78;2.55;;;;;;;27.25;26.08;99630.94;4440464;32;34504;-76
2022/05/03 09:55:50;;;;;;;8.27;3.78;;;;;;;27.49;26.43;99623.78;4440919;32;33646;-81
2022/05/03 09:58:42;;;;;;;9.10;3.03;;;;;;;27.45;25.00;99627.59;4427853;32;32322;-81
2022/05/03 10:01:30;;;;;;;5.00;3.28;;;;;;;27.43;24.52;99618.63;4439417;32;33046;-81
2022/05/03 10:04:21;;;;;;;7.30;2.80;;;;;;;27.56;24.89;99623.34;4440866;32;33324;-81
2022/05/03 10:07:11;;;;;;;6.82;2.75;;;;;;;27.68;24.68;99619.94;4438577;32;32806;-81
2022/05/03 10:10:02;;;;;;;5.57;3.40;;;;;;;27.71;24.92;99608.84;4438200;32;32850;-81
2022/05/03 10:12:57;;;;;;;28.92;21.05;;;;;;;27.31;24.00;99609.91;4439233;32;33128;-81
2022/05/03 10:22:10;;;;;;;7.22;3.55;;;;;;;27.17;24.96;99604.37;4441192;32;33255;-81
2022/05/03 10:25:08;;;;;;;7.53;4.80;;;;;;;27.52;24.70;99599.75;4451994;32;35227;-81
2022/05/03 10:28:13;;;;;;;7.45;3.20;;;;;;;27.90;24.70;99599.31;4439429;32;32387;-82
2022/05/03 10:31:09;;;;;;;5.62;3.35;;;;;;;28.40;23.87;99595.00;4452457;32;33431;-83
2022/05/03 10:33:59;;;;;;;6.68;3.28;;;;;;;27.76;22.23;99599.41;4454099;32;33376;-82
2022/05/03 10:36:54;;;;;;;5.32;3.15;;;;;;;28.25;23.60;99597.44;4454352;32;34019;-82
2022/05/03 10:39:58;;;;;;;6.57;3.72;;;;;;;28.57;23.35;99593.34;4430395;32;32557;-82
2022/05/03 10:42:40;;;;;;;6.50;3.22;;;;;;;28.34;23.17;99587.00;4442108;32;33220;-82
2022/05/03 10:45:29;;;;;;;7.53;3.25;;;;;;;27.95;23.09;99590.72;4454421;32;33829;-82
2022/05/03 10:48:33;;;;;;;7.00;2.95;;;;;;;27.87;23.80;99596.00;4454304;32;34431;-82
2022/05/03 10:51:08;;;;;;;6.65;3.22;;;;;;;27.36;24.36;99590.06;4427615;32;32671;-83
2022/05/03 10:53:44;;;;;;;10.90;6.22;;;;;;;26.42;24.16;99599.41;4441077;32;33350;-83
2022/05/03 10:56:18;;;;;;;6.70;4.32;;;;;;;26.47;24.76;99610.56;4453552;32;33752;-83
2022/05/03 10:59:03;;;;;;;6.50;3.15;;;;;;;25.75;26.17;99616.00;4412788;32;34327;-82
2022/05/03 11:01:33;;;;;;;6.30;3.30;;;;;;;24.62;28.58;99614.25;4425729;32;33311;-82
2022/05/03 11:04:03;;;;;;;7.72;3.25;;;;;;;25.05;29.06;99605.75;4438680;32;33099;-83
2022/05/03 11:06:41;;;;;;;6.40;3.22;;;;;;;25.11;29.89;99620.53;4439679;32;33625;-83
2022/05/03 11:09:15;;;;;;;6.28;3.05;;;;;;;24.69;30.60;99624.28;4438328;32;34572;-82
2022/05/03 11:11:47;;;;;;;8.95;3.25;;;;;;;24.58;31.03;99618.81;4450755;32;34542;-82
2022/05/03 11:14:24;;;;;;;8.30;2.80;;;;;;;24.07;32.27;99615.00;4450795;32;31775;-82
2022/05/03 11:17:03;;;;;;;4.35;2.28;;;;;;;23.94;30.82;99608.16;4425548;32;32300;-83
2022/05/03 11:19:37;;;;;;;5.87;1.83;;;;;;;23.84;30.78;99606.31;4438333;32;35162;-83
2022/05/03 11:22:12;;;;;;;6.53;2.20;;;;;;;23.05;30.48;99612.44;4438533;32;32535;-82
2022/05/03 11:24:48;;;;;;;3.72;1.83;;;;;;;23.11;30.36;99598.09;4437707;32;32487;-83
2022/05/03 11:27:16;;;;;;;3.67;1.85;;;;;;;22.35;28.48;99593.06;4438169;32;34714;-83
2022/05/03 11:29:48;;;;;;;4.10;1.60;;;;;;;22.42;27.85;99593.56;4451082;32;35197;-82
2022/05/03 11:32:30;;;;;;;4.93;1.85;;;;;;;22.29;26.38;99602.59;4450482;32;34861;-83
2022/05/03 11:35:12;;;;;;;3.28;1.52;;;;;;;22.26;25.91;99597.56;4425157;32;32721;-82
2022/05/03 11:38:03;;;;;;;5.55;2.67;;;;;;;22.40;26.36;99593.03;4438495;32;33853;-81
2022/05/03 11:40:51;;;;;;;6.50;3.60;;;;;;;22.57;30.56;99593.47;4437059;32;32976;-76
2022/05/03 11:43:23;;;;;;;6.87;2.58;;;;;;;21.65;33.54;99589.44;4459965;32;33864;-79
2022/05/03 11:45:51;;;;;;;3.22;1.70;;;;;;;21.54;31.93;99596.19;4440218;32;32062;-79
2022/05/03 11:48:25;;;;;;;3.42;1.80;;;;;;;21.75;33.57;99594.16;4441035;32;33684;-79
2022/05/03 11:56:58;;;;;;;6.07;2.17;;;;;;;21.58;34.11;99583.31;4453936;32;33154;-75
2022/05/03 11:59:47;;;;;;;3.62;1.70;;;;;;;22.28;33.81;99586.94;4441299;32;32193;-76
2022/05/03 12:02:50;;;;;;;5.35;1.80;;;;;;;22.49;31.64;99576.47;4442341;32;32888;-75
2022/05/03 12:05:41;;;;;;;3.97;1.85;;;;;;;22.91;30.35;99575.88;4441279;32;32652;-75
2022/05/03 12:08:33;;;;;;;6.55;1.90;;;;;;;23.39;30.86;99562.00;4454828;32;33903;-75
2022/05/03 12:11:32;;;;;;;3.55;1.60;;;;;;;23.96;28.70;99559.06;4441688;32;32238;-75
2022/05/03 12:14:51;;;;;;;3.30;1.67;;;;;;;24.28;26.92;99551.91;4454968;32;34427;-75
2022/05/03 12:18:16;;;;;;;3.10;1.62;;;;;;;24.79;26.40;99551.94;4429294;32;33353;-75
2022/05/03 12:21:29;;;;;;;9.60;2.10;;;;;;;24.94;24.83;99562.09;4441942;32;34061;-75
2022/05/03 12:24:28;;;;;;;7.35;4.57;;;;;;;24.42;25.51;99555.62;4454731;32;33744;-75
2022/05/03 12:27:28;;;;;;;6.85;3.28;;;;;;;24.73;25.46;99555.12;4441483;32;32962;-75
2022/05/03 12:30:26;;;;;;;12.07;8.20;;;;;;;24.91;25.93;99557.91;4441625;32;34135;-75
2022/05/03 12:33:31;;;;;;;16.33;12.37;;;;;;;24.98;25.64;99556.72;4453665;32;32810;-75
2022/05/03 12:36:34;;;;;;;8.30;5.20;;;;;;;25.04;24.12;99552.69;4453506;32;33797;-75
2022/05/03 12:39:32;;;;;;;3.87;2.20;;;;;;;24.80;24.70;99541.56;4454930;32;34937;-75
2022/05/03 12:42:25;;;;;;;4.82;2.33;;;;;;;24.43;24.66;99553.66;4440530;32;32603;-75
2022/05/03 12:45:13;;;;;;;4.68;2.45;;;;;;;25.24;26.14;99549.50;4453447;32;33432;-75
2022/05/03 12:47:57;;;;;;;4.57;2.15;;;;;;;25.10;24.02;99548.66;4453797;32;33911;-75
2022/05/03 12:50:52;;;;;;;6.47;2.30;;;;;;;25.34;24.02;99540.06;4453742;32;35161;-75
2022/05/03 12:53:43;;;;;;;7.85;4.22;;;;;;;25.67;24.51;99535.19;4441453;32;32657;-75
2022/05/03 12:59:29;;;;;;;4.68;2.37;;;;;;;25.57;25.27;99539.84;4454770;32;33687;-76
2022/05/03 13:02:49;;;;;;;6.68;2.75;;;;;;;25.32;25.71;99531.94;4453506;32;35413;-76
2022/05/03 13:05:39;;;;;;;5.15;2.30;;;;;;;25.41;24.33;99540.47;4453382;32;33883;-76
2022/05/03 13:08:29;;;;;;;5.25;2.50;;;;;;;25.77;23.92;99541.44;4441309;32;31807;-76
2022/05/03 13:11:22;;;;;;;7.62;1.80;;;;;;;25.95;22.61;99536.03;4453297;32;33678;-76
2022/05/03 13:14:12;;;;;;;8.38;2.50;;;;;;;26.45;23.18;99532.06;4441457;32;32936;-76
2022/05/03 13:16:59;;;;;;;4.68;1.70;;;;;;;26.42;22.64;99529.06;4428703;32;32629;-76
2022/05/03 13:19:43;;;;;;;4.25;1.90;;;;;;;26.60;22.85;99518.78;4428309;32;32172;-76
2022/05/03 13:22:31;;;;;;;4.12;2.00;;;;;;;26.72;22.88;99525.47;4440711;32;31918;-76